sensor_id;sensor_type;location;lat;lon;timestamp;pressure;altitude;pressure_sealevel;temperature;humidity
61528;BME280;47395;42.032;-8.634;2022-07-29T00:01:59;101105.34;;;20.08;68.98
61528;BME280;47395;42.032;-8.634;2022-07-29T00:04:00;101091.56;;;20.13;68.64
61528;BME280;47395;42.032;-8.634;2022-07-29T00:06:01;101100.03;;;20.18;68.21
61528;BME280;47395;42.032;-8.634;2022-07-29T00:08:02;101099.13;;;20.08;68.90
61528;BME280;47395;42.032;-8.634;2022-07-29T00:10:03;101097.09;;;20.00;69.18
61528;BME280;47395;42.032;-8.634;2022-07-29T00:12:05;101098.28;;;20.07;68.85
61528;BME280;47395;42.032;-8.634;2022-07-29T00:14:06;101097.44;;;20.07;68.95
61528;BME280;47395;42.032;-8.634;2022-07-29T00:16:07;101099.28;;;19.95;68.95
61528;BME280;47395;42.032;-8.634;2022-07-29T00:18:07;101095.63;;;19.96;68.95
61528;BME280;47395;42.032;-8.634;2022-07-29T00:20:09;101093.09;;;19.94;69.13
61528;BME280;47395;42.032;-8.634;2022-07-29T00:22:10;101100.84;;;19.98;68.84
61528;BME280;47395;42.032;-8.634;2022-07-29T00:24:11;101085.78;;;19.96;69.00
61528;BME280;47395;42.032;-8.634;2022-07-29T00:26:11;101087.72;;;19.94;69.08
61528;BME280;47395;42.032;-8.634;2022-07-29T00:28:12;101079.38;;;19.88;69.25
61528;BME280;47395;42.032;-8.634;2022-07-29T00:30:13;101088.84;;;19.92;69.64
61528;BME280;47395;42.032;-8.634;2022-07-29T00:32:14;101080.81;;;19.92;69.70
61528;BME280;47395;42.032;-8.634;2022-07-29T00:34:15;101083.25;;;19.95;69.69
61528;BME280;47395;42.032;-8.634;2022-07-29T00:36:34;101082.41;;;19.83;69.90
61528;BME280;47395;42.032;-8.634;2022-07-29T00:38:35;101085.59;;;19.77;70.13
61528;BME280;47395;42.032;-8.634;2022-07-29T00:40:37;101085.59;;;19.77;69.85
61528;BME280;47395;42.032;-8.634;2022-07-29T00:42:48;101090.59;;;19.70;69.63
61528;BME280;47395;42.032;-8.634;2022-07-29T00:44:49;101082.13;;;19.65;70.02
61528;BME280;47395;42.032;-8.634;2022-07-29T00:46:50;101079.34;;;19.66;70.16
61528;BME280;47395;42.032;-8.634;2022-07-29T00:48:50;101073.72;;;19.69;69.77
61528;BME280;47395;42.032;-8.634;2022-07-29T00:50:51;101080.03;;;19.68;69.83
61528;BME280;47395;42.032;-8.634;2022-07-29T00:52:53;101082.00;;;19.66;70.27
61528;BME280;47395;42.032;-8.634;2022-07-29T00:54:53;101075.22;;;19.62;69.80
61528;BME280;47395;42.032;-8.634;2022-07-29T00:56:57;101078.47;;;19.66;70.25
61528;BME280;47395;42.032;-8.634;2022-07-29T00:58:59;101090.72;;;19.68;70.62
61528;BME280;47395;42.032;-8.634;2022-07-29T01:01:00;101079.56;;;19.63;70.53
61528;BME280;47395;42.032;-8.634;2022-07-29T01:03:01;101074.00;;;19.55;70.21
61528;BME280;47395;42.032;-8.634;2022-07-29T01:05:03;101074.41;;;19.50;70.41
61528;BME280;47395;42.032;-8.634;2022-07-29T01:07:05;101080.09;;;19.57;70.17
61528;BME280;47395;42.032;-8.634;2022-07-29T01:09:07;101077.19;;;19.49;70.77
61528;BME280;47395;42.032;-8.634;2022-07-29T01:11:09;101072.69;;;19.49;70.91
61528;BME280;47395;42.032;-8.634;2022-07-29T01:13:10;101073.44;;;19.40;71.41
61528;BME280;47395;42.032;-8.634;2022-07-29T01:15:12;101064.34;;;19.20;72.47
61528;BME280;47395;42.032;-8.634;2022-07-29T01:17:39;101069.41;;;19.46;72.10
61528;BME280;47395;42.032;-8.634;2022-07-29T01:30:24;101070.00;;;19.49;72.21
61528;BME280;47395;42.032;-8.634;2022-07-29T01:32:28;101075.00;;;19.42;72.10
61528;BME280;47395;42.032;-8.634;2022-07-29T01:34:58;101055.47;;;19.42;72.20
61528;BME280;47395;42.032;-8.634;2022-07-29T01:40:02;101060.75;;;19.09;74.21
61528;BME280;47395;42.032;-8.634;2022-07-29T01:42:14;101058.31;;;19.06;74.11
61528;BME280;47395;42.032;-8.634;2022-07-29T01:44:26;101046.75;;;19.05;74.41
61528;BME280;47395;42.032;-8.634;2022-07-29T01:46:35;101038.13;;;19.02;74.13
61528;BME280;47395;42.032;-8.634;2022-07-29T01:48:45;101045.53;;;18.98;74.51
61528;BME280;47395;42.032;-8.634;2022-07-29T01:50:55;101042.63;;;19.01;74.43
61528;BME280;47395;42.032;-8.634;2022-07-29T01:52:59;101040.34;;;19.08;74.62
61528;BME280;47395;42.032;-8.634;2022-07-29T01:55:06;101040.69;;;19.03;74.91
61528;BME280;47395;42.032;-8.634;2022-07-29T01:57:11;101045.19;;;19.14;74.63
61528;BME280;47395;42.032;-8.634;2022-07-29T01:59:14;101047.34;;;19.21;74.54
61528;BME280;47395;42.032;-8.634;2022-07-29T02:01:17;101045.41;;;19.23;74.58
61528;BME280;47395;42.032;-8.634;2022-07-29T02:03:18;101050.75;;;19.23;74.25
61528;BME280;47395;42.032;-8.634;2022-07-29T02:05:21;101047.00;;;19.25;74.04
61528;BME280;47395;42.032;-8.634;2022-07-29T02:07:25;101046.53;;;19.20;73.79
61528;BME280;47395;42.032;-8.634;2022-07-29T02:09:30;101047.28;;;19.11;74.21
61528;BME280;47395;42.032;-8.634;2022-07-29T02:11:33;101043.22;;;19.16;73.77
61528;BME280;47395;42.032;-8.634;2022-07-29T02:13:36;101052.09;;;19.05;74.17
61528;BME280;47395;42.032;-8.634;2022-07-29T02:15:41;101045.81;;;19.07;73.73
61528;BME280;47395;42.032;-8.634;2022-07-29T02:17:50;101042.88;;;18.98;73.89
61528;BME280;47395;42.032;-8.634;2022-07-29T02:19:56;101043.47;;;19.02;73.82
61528;BME280;47395;42.032;-8.634;2022-07-29T02:21:58;101044.44;;;19.01;73.86
61528;BME280;47395;42.032;-8.634;2022-07-29T02:24:01;101039.09;;;18.89;73.88
61528;BME280;47395;42.032;-8.634;2022-07-29T02:26:03;101034.50;;;18.80;74.46
61528;BME280;47395;42.032;-8.634;2022-07-29T02:28:05;101042.38;;;18.82;74.14
61528;BME280;47395;42.032;-8.634;2022-07-29T02:30:08;101044.19;;;18.81;73.86
61528;BME280;47395;42.032;-8.634;2022-07-29T02:32:11;101040.44;;;18.72;74.64
61528;BME280;47395;42.032;-8.634;2022-07-29T02:34:15;101039.47;;;18.73;74.39
61528;BME280;47395;42.032;-8.634;2022-07-29T02:36:21;101043.34;;;18.69;74.63
61528;BME280;47395;42.032;-8.634;2022-07-29T02:38:24;101040.56;;;18.71;74.51
61528;BME280;47395;42.032;-8.634;2022-07-29T02:40:46;101042.63;;;18.67;74.64
61528;BME280;47395;42.032;-8.634;2022-07-29T02:42:49;101039.09;;;18.66;74.52
61528;BME280;47395;42.032;-8.634;2022-07-29T02:44:50;101041.16;;;18.63;74.94
61528;BME280;47395;42.032;-8.634;2022-07-29T02:47:05;101037.53;;;18.64;74.69
61528;BME280;47395;42.032;-8.634;2022-07-29T02:49:34;101033.88;;;18.65;74.97
61528;BME280;47395;42.032;-8.634;2022-07-29T02:51:46;101038.25;;;18.77;74.27
61528;BME280;47395;42.032;-8.634;2022-07-29T02:53:49;101034.03;;;18.86;73.85
61528;BME280;47395;42.032;-8.634;2022-07-29T02:55:56;101034.97;;;18.85;73.55
61528;BME280;47395;42.032;-8.634;2022-07-29T02:58:02;101029.16;;;18.91;73.64
61528;BME280;47395;42.032;-8.634;2022-07-29T03:00:07;101028.78;;;18.96;73.34
61528;BME280;47395;42.032;-8.634;2022-07-29T03:02:09;101033.16;;;18.97;72.99
61528;BME280;47395;42.032;-8.634;2022-07-29T03:04:13;101039.25;;;18.88;73.23
61528;BME280;47395;42.032;-8.634;2022-07-29T03:06:15;101042.75;;;18.77;74.15
61528;BME280;47395;42.032;-8.634;2022-07-29T03:08:18;101038.97;;;18.68;74.66
61528;BME280;47395;42.032;-8.634;2022-07-29T03:10:19;101034.25;;;18.72;74.49
61528;BME280;47395;42.032;-8.634;2022-07-29T03:12:20;101033.66;;;18.68;74.60
61528;BME280;47395;42.032;-8.634;2022-07-29T03:14:23;101037.78;;;18.72;74.66
61528;BME280;47395;42.032;-8.634;2022-07-29T03:16:24;101033.75;;;18.66;74.94
61528;BME280;47395;42.032;-8.634;2022-07-29T03:18:26;101036.56;;;18.76;75.36
61528;BME280;47395;42.032;-8.634;2022-07-29T03:20:27;101030.38;;;18.87;74.97
61528;BME280;47395;42.032;-8.634;2022-07-29T03:22:29;101017.97;;;18.98;74.21
61528;BME280;47395;42.032;-8.634;2022-07-29T03:24:35;101027.59;;;19.12;73.75
61528;BME280;47395;42.032;-8.634;2022-07-29T03:26:36;101028.66;;;19.21;72.85
61528;BME280;47395;42.032;-8.634;2022-07-29T03:28:37;101016.56;;;19.05;73.28
61528;BME280;47395;42.032;-8.634;2022-07-29T03:30:38;101021.66;;;19.08;73.33
61528;BME280;47395;42.032;-8.634;2022-07-29T03:32:40;101025.41;;;19.17;72.88
61528;BME280;47395;42.032;-8.634;2022-07-29T03:34:41;101033.53;;;19.04;73.40
61528;BME280;47395;42.032;-8.634;2022-07-29T03:36:42;101033.53;;;19.15;73.09
61528;BME280;47395;42.032;-8.634;2022-07-29T03:38:44;101029.63;;;19.20;72.59
61528;BME280;47395;42.032;-8.634;2022-07-29T03:40:53;101026.97;;;19.20;72.69
61528;BME280;47395;42.032;-8.634;2022-07-29T03:42:55;101034.00;;;19.21;72.51
61528;BME280;47395;42.032;-8.634;2022-07-29T03:44:58;101026.25;;;19.17;72.51
61528;BME280;47395;42.032;-8.634;2022-07-29T03:47:01;101027.00;;;19.08;72.58
61528;BME280;47395;42.032;-8.634;2022-07-29T03:49:04;101027.19;;;18.94;72.63
61528;BME280;47395;42.032;-8.634;2022-07-29T03:51:05;101031.25;;;18.88;72.75
61528;BME280;47395;42.032;-8.634;2022-07-29T03:53:07;101029.66;;;18.74;73.52
61528;BME280;47395;42.032;-8.634;2022-07-29T03:55:09;101034.25;;;18.60;74.08
61528;BME280;47395;42.032;-8.634;2022-07-29T03:57:11;101037.03;;;18.59;74.52
61528;BME280;47395;42.032;-8.634;2022-07-29T03:59:13;101028.91;;;18.49;74.50
61528;BME280;47395;42.032;-8.634;2022-07-29T04:06:10;101055.19;;;18.42;74.86
61528;BME280;47395;42.032;-8.634;2022-07-29T04:08:11;101050.25;;;18.37;75.16
61528;BME280;47395;42.032;-8.634;2022-07-29T04:10:12;101051.94;;;18.38;74.98
61528;BME280;47395;42.032;-8.634;2022-07-29T04:12:13;101047.69;;;18.36;74.77
61528;BME280;47395;42.032;-8.634;2022-07-29T04:14:14;101051.78;;;18.29;75.15
61528;BME280;47395;42.032;-8.634;2022-07-29T04:16:15;101049.72;;;18.21;75.49
61528;BME280;47395;42.032;-8.634;2022-07-29T04:18:16;101057.59;;;18.22;75.27
61528;BME280;47395;42.032;-8.634;2022-07-29T04:20:17;101055.25;;;18.18;75.01
61528;BME280;47395;42.032;-8.634;2022-07-29T04:22:18;101056.25;;;18.17;74.82
61528;BME280;47395;42.032;-8.634;2022-07-29T04:24:19;101059.50;;;18.20;74.65
61528;BME280;47395;42.032;-8.634;2022-07-29T04:26:20;101064.25;;;18.17;75.08
61528;BME280;47395;42.032;-8.634;2022-07-29T04:28:21;101064.72;;;18.10;75.58
61528;BME280;47395;42.032;-8.634;2022-07-29T04:30:22;101058.81;;;18.05;76.63
61528;BME280;47395;42.032;-8.634;2022-07-29T04:32:24;101058.09;;;18.03;76.46
61528;BME280;47395;42.032;-8.634;2022-07-29T04:34:25;101059.91;;;18.03;75.96
61528;BME280;47395;42.032;-8.634;2022-07-29T04:36:26;101056.84;;;17.96;76.83
61528;BME280;47395;42.032;-8.634;2022-07-29T04:38:28;101062.06;;;17.97;77.53
61528;BME280;47395;42.032;-8.634;2022-07-29T04:40:29;101063.91;;;17.97;78.10
61528;BME280;47395;42.032;-8.634;2022-07-29T04:42:30;101068.78;;;18.03;78.57
61528;BME280;47395;42.032;-8.634;2022-07-29T04:44:31;101066.09;;;18.03;78.10
61528;BME280;47395;42.032;-8.634;2022-07-29T04:46:31;101068.53;;;18.06;77.82
61528;BME280;47395;42.032;-8.634;2022-07-29T04:48:33;101078.03;;;18.10;77.88
61528;BME280;47395;42.032;-8.634;2022-07-29T04:50:34;101074.31;;;18.13;77.10
61528;BME280;47395;42.032;-8.634;2022-07-29T04:52:35;101076.44;;;18.08;76.90
61528;BME280;47395;42.032;-8.634;2022-07-29T04:54:36;101084.31;;;18.09;76.47
61528;BME280;47395;42.032;-8.634;2022-07-29T04:56:36;101075.38;;;18.10;76.02
61528;BME280;47395;42.032;-8.634;2022-07-29T04:58:37;101080.81;;;18.09;75.96
61528;BME280;47395;42.032;-8.634;2022-07-29T05:00:39;101084.75;;;18.03;75.92
61528;BME280;47395;42.032;-8.634;2022-07-29T05:02:40;101085.75;;;18.02;75.87
61528;BME280;47395;42.032;-8.634;2022-07-29T05:04:41;101082.31;;;18.00;76.00
61528;BME280;47395;42.032;-8.634;2022-07-29T05:06:42;101087.44;;;17.79;77.26
61528;BME280;47395;42.032;-8.634;2022-07-29T05:08:43;101092.31;;;17.85;76.98
61528;BME280;47395;42.032;-8.634;2022-07-29T05:10:45;101090.69;;;17.95;76.43
61528;BME280;47395;42.032;-8.634;2022-07-29T05:12:46;101090.91;;;17.92;76.60
61528;BME280;47395;42.032;-8.634;2022-07-29T05:14:47;101088.22;;;17.92;76.29
61528;BME280;47395;42.032;-8.634;2022-07-29T05:16:48;101094.88;;;17.86;76.56
61528;BME280;47395;42.032;-8.634;2022-07-29T05:18:51;101095.63;;;17.88;76.40
61528;BME280;47395;42.032;-8.634;2022-07-29T05:20:52;101103.81;;;17.85;76.40
61528;BME280;47395;42.032;-8.634;2022-07-29T05:22:53;101101.56;;;17.92;76.08
61528;BME280;47395;42.032;-8.634;2022-07-29T05:24:54;101109.09;;;17.98;75.87
61528;BME280;47395;42.032;-8.634;2022-07-29T05:26:55;101106.19;;;18.01;75.97
61528;BME280;47395;42.032;-8.634;2022-07-29T05:28:56;101107.91;;;18.03;76.10
61528;BME280;47395;42.032;-8.634;2022-07-29T05:30:57;101106.63;;;18.08;75.94
61528;BME280;47395;42.032;-8.634;2022-07-29T05:32:58;101112.91;;;18.07;75.87
61528;BME280;47395;42.032;-8.634;2022-07-29T05:34:59;101118.03;;;18.10;75.73
61528;BME280;47395;42.032;-8.634;2022-07-29T05:37:00;101124.06;;;17.88;76.17
61528;BME280;47395;42.032;-8.634;2022-07-29T05:39:01;101114.09;;;18.03;75.85
61528;BME280;47395;42.032;-8.634;2022-07-29T05:41:03;101125.06;;;18.11;75.45
61528;BME280;47395;42.032;-8.634;2022-07-29T05:43:04;101126.53;;;18.16;75.39
61528;BME280;47395;42.032;-8.634;2022-07-29T05:45:05;101121.94;;;18.18;75.11
61528;BME280;47395;42.032;-8.634;2022-07-29T05:47:06;101126.88;;;18.11;75.70
61528;BME280;47395;42.032;-8.634;2022-07-29T05:49:07;101123.50;;;18.20;75.28
61528;BME280;47395;42.032;-8.634;2022-07-29T05:51:08;101135.91;;;18.21;75.54
61528;BME280;47395;42.032;-8.634;2022-07-29T05:53:09;101135.31;;;18.29;74.86
61528;BME280;47395;42.032;-8.634;2022-07-29T05:55:10;101126.84;;;18.35;74.56
61528;BME280;47395;42.032;-8.634;2022-07-29T05:57:18;101133.06;;;18.47;74.31
61528;BME280;47395;42.032;-8.634;2022-07-29T05:59:20;101130.94;;;18.64;73.96
61528;BME280;47395;42.032;-8.634;2022-07-29T06:01:21;101128.78;;;18.81;73.22
61528;BME280;47395;42.032;-8.634;2022-07-29T06:03:22;101124.31;;;19.04;72.65
61528;BME280;47395;42.032;-8.634;2022-07-29T06:05:23;101134.13;;;19.03;72.32
61528;BME280;47395;42.032;-8.634;2022-07-29T06:07:24;101134.53;;;19.22;72.12
61528;BME280;47395;42.032;-8.634;2022-07-29T06:09:25;101135.22;;;19.58;70.60
61528;BME280;47395;42.032;-8.634;2022-07-29T06:11:26;101128.97;;;19.80;69.81
61528;BME280;47395;42.032;-8.634;2022-07-29T06:13:27;101135.13;;;20.04;68.87
61528;BME280;47395;42.032;-8.634;2022-07-29T06:15:28;101138.16;;;20.32;67.92
61528;BME280;47395;42.032;-8.634;2022-07-29T06:17:29;101133.16;;;20.60;67.42
61528;BME280;47395;42.032;-8.634;2022-07-29T06:19:30;101135.44;;;20.86;66.03
61528;BME280;47395;42.032;-8.634;2022-07-29T06:21:31;101138.41;;;21.14;64.97
61528;BME280;47395;42.032;-8.634;2022-07-29T06:23:31;101137.94;;;21.40;63.97
61528;BME280;47395;42.032;-8.634;2022-07-29T06:25:32;101138.34;;;21.76;63.38
61528;BME280;47395;42.032;-8.634;2022-07-29T06:27:35;101138.38;;;22.06;62.74
61528;BME280;47395;42.032;-8.634;2022-07-29T06:29:36;101148.13;;;22.37;61.23
61528;BME280;47395;42.032;-8.634;2022-07-29T06:31:38;101141.44;;;22.51;60.17
61528;BME280;47395;42.032;-8.634;2022-07-29T06:33:39;101144.38;;;22.87;59.90
61528;BME280;47395;42.032;-8.634;2022-07-29T06:35:39;101144.38;;;23.25;58.50
61528;BME280;47395;42.032;-8.634;2022-07-29T06:37:42;101146.19;;;23.63;57.43
61528;BME280;47395;42.032;-8.634;2022-07-29T06:39:43;101150.13;;;24.05;56.16
61528;BME280;47395;42.032;-8.634;2022-07-29T06:41:50;101149.31;;;24.22;54.98
61528;BME280;47395;42.032;-8.634;2022-07-29T06:43:51;101146.16;;;24.72;53.90
61528;BME280;47395;42.032;-8.634;2022-07-29T06:45:52;101152.53;;;24.71;53.73
61528;BME280;47395;42.032;-8.634;2022-07-29T06:47:53;101156.28;;;25.05;53.13
61528;BME280;47395;42.032;-8.634;2022-07-29T06:49:53;101158.41;;;25.62;51.29
61528;BME280;47395;42.032;-8.634;2022-07-29T06:51:55;101163.34;;;25.32;52.31
61528;BME280;47395;42.032;-8.634;2022-07-29T06:53:56;101160.56;;;25.50;51.86
61528;BME280;47395;42.032;-8.634;2022-07-29T06:55:58;101163.09;;;26.28;50.20
61528;BME280;47395;42.032;-8.634;2022-07-29T06:58:00;101171.34;;;26.10;51.01
61528;BME280;47395;42.032;-8.634;2022-07-29T07:00:02;101156.56;;;27.04;47.81
61528;BME280;47395;42.032;-8.634;2022-07-29T07:02:05;101160.41;;;28.13;45.62
61528;BME280;47395;42.032;-8.634;2022-07-29T07:04:06;101157.53;;;29.07;43.60
61528;BME280;47395;42.032;-8.634;2022-07-29T07:06:09;101161.59;;;30.22;41.10
61528;BME280;47395;42.032;-8.634;2022-07-29T07:08:10;101159.31;;;30.54;40.02
61528;BME280;47395;42.032;-8.634;2022-07-29T07:10:11;101175.59;;;30.76;39.59
61528;BME280;47395;42.032;-8.634;2022-07-29T07:12:12;101176.31;;;30.92;38.44
61528;BME280;47395;42.032;-8.634;2022-07-29T07:14:13;101173.94;;;31.59;37.30
61528;BME280;47395;42.032;-8.634;2022-07-29T07:16:14;101179.91;;;31.97;36.52
61528;BME280;47395;42.032;-8.634;2022-07-29T07:18:15;101173.44;;;32.25;36.42
61528;BME280;47395;42.032;-8.634;2022-07-29T07:20:17;101179.50;;;32.74;35.25
61528;BME280;47395;42.032;-8.634;2022-07-29T07:22:18;101184.94;;;31.93;35.99
61528;BME280;47395;42.032;-8.634;2022-07-29T07:24:19;101181.59;;;32.72;35.25
61528;BME280;47395;42.032;-8.634;2022-07-29T07:26:20;101173.66;;;32.43;35.11
61528;BME280;47395;42.032;-8.634;2022-07-29T07:28:21;101172.91;;;33.16;34.48
61528;BME280;47395;42.032;-8.634;2022-07-29T07:30:22;101173.19;;;33.53;33.39
61528;BME280;47395;42.032;-8.634;2022-07-29T07:32:22;101166.50;;;33.81;33.57
61528;BME280;47395;42.032;-8.634;2022-07-29T07:34:23;101180.22;;;34.39;32.63
61528;BME280;47395;42.032;-8.634;2022-07-29T07:36:24;101179.53;;;35.07;31.19
61528;BME280;47395;42.032;-8.634;2022-07-29T07:38:26;101189.59;;;35.62;31.00
61528;BME280;47395;42.032;-8.634;2022-07-29T07:40:27;101184.06;;;35.50;30.62
61528;BME280;47395;42.032;-8.634;2022-07-29T07:42:27;101181.06;;;35.21;31.12
61528;BME280;47395;42.032;-8.634;2022-07-29T07:44:28;101184.09;;;35.93;30.17
61528;BME280;47395;42.032;-8.634;2022-07-29T07:46:29;101184.31;;;35.79;30.34
61528;BME280;47395;42.032;-8.634;2022-07-29T07:48:30;101184.53;;;36.44;29.00
61528;BME280;47395;42.032;-8.634;2022-07-29T07:50:31;101181.09;;;35.52;30.51
61528;BME280;47395;42.032;-8.634;2022-07-29T07:52:32;101179.34;;;36.67;28.68
61528;BME280;47395;42.032;-8.634;2022-07-29T07:54:33;101186.31;;;35.53;30.88
61528;BME280;47395;42.032;-8.634;2022-07-29T07:56:34;101180.38;;;35.87;30.68
61528;BME280;47395;42.032;-8.634;2022-07-29T07:58:36;101183.72;;;35.77;29.95
61528;BME280;47395;42.032;-8.634;2022-07-29T08:00:37;101181.69;;;36.51;28.90
61528;BME280;47395;42.032;-8.634;2022-07-29T08:02:39;101186.50;;;35.89;29.03
61528;BME280;47395;42.032;-8.634;2022-07-29T08:04:40;101180.59;;;36.16;28.87
61528;BME280;47395;42.032;-8.634;2022-07-29T08:06:41;101184.22;;;36.65;28.32
61528;BME280;47395;42.032;-8.634;2022-07-29T08:08:43;101183.16;;;37.31;27.17
61528;BME280;47395;42.032;-8.634;2022-07-29T08:10:46;101193.97;;;37.96;26.07
61528;BME280;47395;42.032;-8.634;2022-07-29T08:12:53;101184.75;;;38.19;26.74
61528;BME280;47395;42.032;-8.634;2022-07-29T08:14:54;101183.84;;;38.87;25.13
61528;BME280;47395;42.032;-8.634;2022-07-29T08:16:55;101193.41;;;38.28;25.63
61528;BME280;47395;42.032;-8.634;2022-07-29T08:18:56;101191.22;;;37.79;26.98
61528;BME280;47395;42.032;-8.634;2022-07-29T08:20:58;101203.16;;;38.02;25.77
61528;BME280;47395;42.032;-8.634;2022-07-29T08:22:59;101198.47;;;38.93;25.32
61528;BME280;47395;42.032;-8.634;2022-07-29T08:25:00;101205.50;;;38.61;24.97
61528;BME280;47395;42.032;-8.634;2022-07-29T08:27:00;101205.28;;;37.65;26.04
61528;BME280;47395;42.032;-8.634;2022-07-29T08:29:01;101207.78;;;38.30;25.55
61528;BME280;47395;42.032;-8.634;2022-07-29T08:31:02;101206.69;;;38.14;25.81
61528;BME280;47395;42.032;-8.634;2022-07-29T08:33:03;101205.00;;;38.64;25.72
61528;BME280;47395;42.032;-8.634;2022-07-29T08:35:04;101213.25;;;39.26;24.09
61528;BME280;47395;42.032;-8.634;2022-07-29T08:37:05;101208.38;;;39.56;24.29
61528;BME280;47395;42.032;-8.634;2022-07-29T08:39:07;101214.56;;;39.96;23.04
61528;BME280;47395;42.032;-8.634;2022-07-29T08:41:08;101199.78;;;39.52;23.87
61528;BME280;47395;42.032;-8.634;2022-07-29T08:43:09;101205.19;;;39.97;22.96
61528;BME280;47395;42.032;-8.634;2022-07-29T08:45:10;101208.88;;;40.89;21.97
61528;BME280;47395;42.032;-8.634;2022-07-29T08:47:14;101203.47;;;40.24;22.45
61528;BME280;47395;42.032;-8.634;2022-07-29T08:49:15;101208.03;;;39.80;23.79
61528;BME280;47395;42.032;-8.634;2022-07-29T08:51:19;101204.69;;;39.23;23.53
61528;BME280;47395;42.032;-8.634;2022-07-29T08:53:20;101206.44;;;40.17;22.73
61528;BME280;47395;42.032;-8.634;2022-07-29T08:55:22;101197.22;;;39.46;23.56
61528;BME280;47395;42.032;-8.634;2022-07-29T08:57:24;101201.03;;;39.45;23.41
61528;BME280;47395;42.032;-8.634;2022-07-29T08:59:27;101201.69;;;40.07;22.82
61528;BME280;47395;42.032;-8.634;2022-07-29T09:01:29;101199.91;;;40.71;22.31
61528;BME280;47395;42.032;-8.634;2022-07-29T09:03:34;101193.31;;;40.78;22.20
61528;BME280;47395;42.032;-8.634;2022-07-29T09:05:37;101187.66;;;41.05;22.05
61528;BME280;47395;42.032;-8.634;2022-07-29T09:07:39;101184.47;;;41.50;21.26
61528;BME280;47395;42.032;-8.634;2022-07-29T09:09:44;101186.16;;;41.61;20.77
61528;BME280;47395;42.032;-8.634;2022-07-29T09:11:45;101180.88;;;41.39;21.57
61528;BME280;47395;42.032;-8.634;2022-07-29T09:13:46;101185.34;;;42.13;20.36
61528;BME280;47395;42.032;-8.634;2022-07-29T09:15:48;101181.69;;;41.34;21.03
61528;BME280;47395;42.032;-8.634;2022-07-29T09:17:49;101179.84;;;41.82;21.17
61528;BME280;47395;42.032;-8.634;2022-07-29T09:19:50;101171.78;;;42.11;20.60
61528;BME280;47395;42.032;-8.634;2022-07-29T09:21:53;101177.25;;;42.58;19.88
61528;BME280;47395;42.032;-8.634;2022-07-29T09:24:21;101173.75;;;41.95;20.83
61528;BME280;47395;42.032;-8.634;2022-07-29T09:26:28;101167.63;;;41.57;20.94
61528;BME280;47395;42.032;-8.634;2022-07-29T09:28:29;101171.53;;;42.23;20.54
61528;BME280;47395;42.032;-8.634;2022-07-29T09:30:30;101171.81;;;41.85;20.88
61528;BME280;47395;42.032;-8.634;2022-07-29T09:32:32;101162.66;;;42.32;19.78
61528;BME280;47395;42.032;-8.634;2022-07-29T09:34:33;101171.28;;;41.78;20.52
61528;BME280;47395;42.032;-8.634;2022-07-29T09:36:45;101164.06;;;42.24;20.56
61528;BME280;47395;42.032;-8.634;2022-07-29T09:38:57;101159.38;;;41.78;21.48
61528;BME280;47395;42.032;-8.634;2022-07-29T09:41:00;101158.16;;;42.46;20.67
61528;BME280;47395;42.032;-8.634;2022-07-29T09:43:12;101160.78;;;42.93;19.75
61528;BME280;47395;42.032;-8.634;2022-07-29T09:45:34;101156.59;;;41.98;20.66
61528;BME280;47395;42.032;-8.634;2022-07-29T09:47:44;101151.88;;;41.57;21.41
61528;BME280;47395;42.032;-8.634;2022-07-29T09:49:58;101155.75;;;41.77;20.95
61528;BME280;47395;42.032;-8.634;2022-07-29T09:52:02;101165.72;;;42.09;20.80
61528;BME280;47395;42.032;-8.634;2022-07-29T09:54:25;101160.28;;;42.81;20.63
61528;BME280;47395;42.032;-8.634;2022-07-29T09:56:40;101167.56;;;42.50;20.96
61528;BME280;47395;42.032;-8.634;2022-07-29T09:58:41;101157.44;;;43.01;20.18
61528;BME280;47395;42.032;-8.634;2022-07-29T10:00:42;101159.03;;;42.42;20.71
61528;BME280;47395;42.032;-8.634;2022-07-29T10:02:45;101160.97;;;42.36;20.87
61528;BME280;47395;42.032;-8.634;2022-07-29T10:04:46;101160.31;;;42.75;20.63
61528;BME280;47395;42.032;-8.634;2022-07-29T10:07:01;101165.75;;;43.01;19.66
61528;BME280;47395;42.032;-8.634;2022-07-29T10:09:09;101158.66;;;42.74;20.70
61528;BME280;47395;42.032;-8.634;2022-07-29T10:11:12;101158.16;;;42.57;21.01
61528;BME280;47395;42.032;-8.634;2022-07-29T10:13:14;101159.78;;;42.68;20.45
61528;BME280;47395;42.032;-8.634;2022-07-29T10:15:15;101162.41;;;41.97;21.42
61528;BME280;47395;42.032;-8.634;2022-07-29T10:17:17;101153.56;;;43.48;20.18
61528;BME280;47395;42.032;-8.634;2022-07-29T10:19:19;101157.78;;;43.40;19.59
61528;BME280;47395;42.032;-8.634;2022-07-29T10:21:20;101152.72;;;42.97;20.76
61528;BME280;47395;42.032;-8.634;2022-07-29T10:23:22;101151.88;;;43.01;20.89
61528;BME280;47395;42.032;-8.634;2022-07-29T10:25:24;101148.06;;;43.37;19.73
61528;BME280;47395;42.032;-8.634;2022-07-29T10:27:26;101150.81;;;43.48;20.30
61528;BME280;47395;42.032;-8.634;2022-07-29T10:29:27;101142.16;;;42.38;21.80
61528;BME280;47395;42.032;-8.634;2022-07-29T10:32:00;101143.06;;;44.39;20.00
61528;BME280;47395;42.032;-8.634;2022-07-29T10:34:10;101143.03;;;43.79;20.00
61528;BME280;47395;42.032;-8.634;2022-07-29T10:38:30;101138.66;;;43.38;19.98
61528;BME280;47395;42.032;-8.634;2022-07-29T10:41:06;101137.69;;;42.37;21.22
61528;BME280;47395;42.032;-8.634;2022-07-29T10:43:25;101134.06;;;42.52;21.34
61528;BME280;47395;42.032;-8.634;2022-07-29T10:45:27;101132.34;;;42.72;20.89
61528;BME280;47395;42.032;-8.634;2022-07-29T10:47:30;101139.38;;;42.33;21.66
61528;BME280;47395;42.032;-8.634;2022-07-29T10:49:31;101130.38;;;42.77;21.58
61528;BME280;47395;42.032;-8.634;2022-07-29T10:51:54;101132.69;;;42.60;21.12
61528;BME280;47395;42.032;-8.634;2022-07-29T10:53:57;101122.50;;;42.08;21.55
61528;BME280;47395;42.032;-8.634;2022-07-29T10:56:00;101120.59;;;41.46;22.06
61528;BME280;47395;42.032;-8.634;2022-07-29T10:58:14;101119.22;;;41.39;22.74